Time;durP1;ratioP1;P1;durP2;ratioP2;P2;SDS_P1;SDS_P2;PMS_P1;PMS_P2;Temp;Humidity;BMP_temperature;BMP_pressure;BME280_temperature;BME280_humidity;BME280_pressure;Samples;Min_cycle;Max_cycle;Signal;HPM_P1;HPM_P2
2022/12/08 00:01:07;;;;;;;41.22;20.98;;;;;;;3.30;100.00;100654.50;5095565;28;20402;-65
2022/12/08 00:03:34;;;;;;;42.88;20.60;;;;;;;3.31;100.00;100652.72;5096038;28;20051;-65
2022/12/08 00:09:21;;;;;;;40.97;20.75;;;;;;;3.33;100.00;100650.81;5094402;28;20066;-65
2022/12/08 00:11:37;;;;;;;44.33;21.15;;;;;;;3.38;100.00;100646.09;5095541;28;20044;-65
2022/12/08 00:14:04;;;;;;;44.03;19.23;;;;;;;3.36;100.00;100643.56;5095688;28;20075;-65
2022/12/08 00:16:31;;;;;;;41.40;21.05;;;;;;;3.42;100.00;100643.16;5095708;28;20040;-65
2022/12/08 00:18:58;;;;;;;39.78;20.05;;;;;;;3.24;100.00;100636.63;5095128;28;20048;-65
2022/12/08 00:21:24;;;;;;;39.60;21.08;;;;;;;3.24;100.00;100640.06;5094276;28;20504;-65
2022/12/08 00:23:54;;;;;;;43.45;20.55;;;;;;;3.35;100.00;100628.81;5095109;28;20113;-65
2022/12/08 00:26:21;;;;;;;44.53;20.10;;;;;;;3.40;100.00;100626.69;5095494;28;20040;-65
2022/12/08 00:28:48;;;;;;;44.63;20.20;;;;;;;3.43;100.00;100623.00;5095616;28;20082;-65
2022/12/08 00:31:15;;;;;;;41.50;19.92;;;;;;;3.42;100.00;100618.69;5095351;28;20101;-65
2022/12/08 00:33:41;;;;;;;39.10;20.05;;;;;;;3.52;100.00;100622.34;5095140;28;20044;-65
2022/12/08 00:36:11;;;;;;;37.25;19.63;;;;;;;3.55;100.00;100623.91;5095329;28;20036;-65
2022/12/08 00:38:38;;;;;;;37.80;20.02;;;;;;;3.53;100.00;100616.16;5094965;28;20036;-65
2022/12/08 00:41:11;;;;;;;38.08;19.55;;;;;;;3.50;100.00;100613.75;5095296;28;20127;-65
2022/12/08 00:43:38;;;;;;;38.83;18.85;;;;;;;3.41;100.00;100606.53;5095188;28;20047;-65
2022/12/08 00:46:05;;;;;;;40.35;19.85;;;;;;;3.42;100.00;100606.44;5093877;28;20036;-65
2022/12/08 00:48:32;;;;;;;34.72;18.92;;;;;;;3.37;100.00;100602.47;5094240;28;20036;-65
2022/12/08 00:50:59;;;;;;;37.40;19.40;;;;;;;3.41;100.00;100601.31;5095355;28;20112;-65
2022/12/08 00:53:26;;;;;;;33.15;17.95;;;;;;;3.37;100.00;100599.84;5094785;28;20070;-65
2022/12/08 00:55:53;;;;;;;36.47;17.95;;;;;;;3.44;100.00;100591.44;5094979;28;20040;-65
2022/12/08 00:58:20;;;;;;;35.58;17.60;;;;;;;3.43;100.00;100594.97;5094437;28;20119;-65
2022/12/08 01:00:47;;;;;;;38.08;18.05;;;;;;;3.44;100.00;100587.97;5093916;28;20098;-65
2022/12/08 01:03:13;;;;;;;38.20;17.70;;;;;;;3.44;100.00;100588.81;5094652;28;20543;-65
2022/12/08 01:05:40;;;;;;;36.42;17.63;;;;;;;3.42;100.00;100595.09;5094289;28;20504;-65
2022/12/08 01:08:07;;;;;;;41.28;18.10;;;;;;;3.41;100.00;100598.69;5093575;28;20056;-65
2022/12/08 01:10:37;;;;;;;40.63;19.63;;;;;;;3.48;100.00;100596.47;5094197;28;20063;-65
2022/12/08 01:13:04;;;;;;;36.95;19.40;;;;;;;3.40;100.00;100589.97;5094735;28;20122;-65
2022/12/08 01:15:31;;;;;;;44.33;20.02;;;;;;;3.44;100.00;100590.59;5093271;28;20089;-65
2022/12/08 01:17:58;;;;;;;39.88;20.65;;;;;;;3.43;100.00;100591.53;5094244;28;20594;-65
2022/12/08 01:20:24;;;;;;;38.45;19.90;;;;;;;3.55;100.00;100589.81;5094127;28;20044;-65
2022/12/08 01:22:51;;;;;;;43.42;21.45;;;;;;;3.53;100.00;100589.06;5094193;28;20073;-65
2022/12/08 01:25:17;;;;;;;41.63;20.38;;;;;;;3.41;100.00;100591.63;5094384;28;20067;-65
2022/12/08 01:27:44;;;;;;;53.80;22.23;;;;;;;3.35;100.00;100597.34;5094167;28;20474;-65
2022/12/08 01:30:12;;;;;;;48.88;23.88;;;;;;;3.39;100.00;100584.84;5094096;28;20485;-65
2022/12/08 01:32:38;;;;;;;46.67;22.05;;;;;;;3.36;100.00;100595.53;5093924;28;20055;-65
2022/12/08 01:35:05;;;;;;;52.28;23.48;;;;;;;3.40;100.00;100597.84;5094370;28;20044;-65
2022/12/08 01:37:32;;;;;;;46.40;22.65;;;;;;;3.43;100.00;100589.75;5092870;28;20036;-65
2022/12/08 01:39:58;;;;;;;50.40;22.17;;;;;;;3.38;100.00;100593.66;5092785;28;20089;-65
2022/12/08 01:42:25;;;;;;;52.00;22.90;;;;;;;3.40;100.00;100595.22;5092854;28;20097;-65
2022/12/08 01:44:56;;;;;;;47.35;23.10;;;;;;;3.38;100.00;100594.47;5093870;28;20101;-65
2022/12/08 01:47:27;;;;;;;52.80;25.10;;;;;;;3.48;100.00;100586.78;5093778;28;20050;-65
2022/12/08 01:49:53;;;;;;;50.10;23.45;;;;;;;3.42;100.00;100587.22;5093939;28;20127;-65
2022/12/08 01:52:27;;;;;;;53.83;23.35;;;;;;;3.47;100.00;100587.72;5092695;28;20059;-65
2022/12/08 01:55:01;;;;;;;47.25;22.40;;;;;;;3.55;100.00;100590.66;5093859;28;20050;-65
2022/12/08 01:57:34;;;;;;;47.70;22.70;;;;;;;3.48;100.00;100589.41;5093937;28;20489;-65
2022/12/08 02:00:06;;;;;;;48.25;22.67;;;;;;;3.48;100.00;100578.09;5091972;28;20071;-65
2022/12/08 02:02:46;;;;;;;;;;;;;;;3.51;100.00;100580.47;5093785;28;20067;-65
2022/12/08 02:05:13;;;;;;;49.05;21.52;;;;;;;3.63;100.00;100580.41;5093330;28;19919;-65
2022/12/08 02:07:40;;;;;;;47.45;20.45;;;;;;;3.63;100.00;100566.47;5093289;28;20090;-65
2022/12/08 02:10:07;;;;;;;54.05;22.85;;;;;;;3.62;100.00;100570.03;5093549;28;20035;-65
2022/12/08 02:12:34;;;;;;;45.42;21.25;;;;;;;3.64;100.00;100566.34;5093007;28;20093;-65
2022/12/08 02:15:01;;;;;;;46.72;22.40;;;;;;;3.60;100.00;100564.06;5093976;28;20149;-65
2022/12/08 02:18:10;;;;;;;45.50;22.27;;;;;;;3.58;100.00;100560.72;5093135;28;20083;-65
2022/12/08 02:20:52;;;;;;;44.35;20.98;;;;;;;3.59;100.00;100567.66;5092186;28;20497;-65
2022/12/08 02:23:43;;;;;;;39.55;19.77;;;;;;;3.66;100.00;100558.38;5093049;28;20059;-65
2022/12/08 02:26:34;;;;;;;42.17;20.80;;;;;;;3.70;100.00;100559.81;5093681;28;20469;-65
2022/12/08 02:29:31;;;;;;;45.35;20.38;;;;;;;3.91;100.00;100549.50;5093224;28;20443;-65
2022/12/08 02:32:32;;;;;;;42.72;19.83;;;;;;;3.77;100.00;100544.47;5093320;28;20500;-65
2022/12/08 02:35:06;;;;;;;44.47;20.67;;;;;;;3.81;100.00;100528.34;5093120;28;20493;-65
2022/12/08 02:37:42;;;;;;;44.35;20.88;;;;;;;3.62;100.00;100542.03;5093273;28;20032;-65
2022/12/08 02:40:19;;;;;;;45.30;20.30;;;;;;;3.57;100.00;100531.03;5093165;28;20519;-65
2022/12/08 02:43:02;;;;;;;33.78;17.17;;;;;;;3.56;100.00;100528.53;5093279;28;20485;-64
2022/12/08 02:45:35;;;;;;;37.63;17.52;;;;;;;3.61;100.00;100519.34;5093461;28;20055;-65
2022/12/08 02:48:02;;;;;;;39.15;18.48;;;;;;;3.69;100.00;100513.53;5092409;28;20066;-64
2022/12/08 02:50:29;;;;;;;39.50;17.67;;;;;;;3.72;100.00;100521.19;5093529;28;20093;-64
2022/12/08 02:52:55;;;;;;;34.13;16.13;;;;;;;3.63;99.95;100520.06;5093141;28;20493;-64
2022/12/08 02:55:26;;;;;;;35.78;17.73;;;;;;;3.51;100.00;100518.38;5093083;28;20047;-64
2022/12/08 02:58:24;;;;;;;34.83;16.30;;;;;;;3.46;100.00;100523.97;5093220;28;20123;-64
2022/12/08 03:01:25;;;;;;;35.00;15.93;;;;;;;3.59;100.00;100509.94;5093253;28;20048;-64
2022/12/08 03:04:18;;;;;;;33.95;15.15;;;;;;;3.59;100.00;100502.06;5091531;28;20093;-64
2022/12/08 03:06:49;;;;;;;;;;;;;;;3.69;100.00;100495.16;5093097;28;20068;-64
2022/12/08 03:09:28;;;;;;;28.65;14.95;;;;;;;3.64;99.60;100497.31;5092829;28;19966;-64
2022/12/08 03:12:09;;;;;;;31.33;16.60;;;;;;;3.68;99.64;100492.69;5093285;28;20044;-64
2022/12/08 03:14:38;;;;;;;37.92;16.38;;;;;;;3.73;99.14;100495.75;5074801;28;20048;-64
2022/12/08 03:17:05;;;;;;;37.10;15.27;;;;;;;3.61;99.34;100487.88;5091932;28;20058;-64
2022/12/08 03:19:37;;;;;;;30.23;16.27;;;;;;;3.57;99.68;100489.06;5092713;28;20101;-64
2022/12/08 03:22:06;;;;;;;31.95;15.38;;;;;;;3.51;99.51;100483.44;5092768;28;20119;-64
2022/12/08 03:24:37;;;;;;;33.10;15.63;;;;;;;3.60;99.87;100482.75;5092602;28;20379;-64
2022/12/08 03:27:11;;;;;;;35.78;15.75;;;;;;;3.76;99.01;100479.81;5092957;28;20048;-64
2022/12/08 03:29:38;;;;;;;30.92;15.25;;;;;;;3.67;99.13;100473.47;5092583;28;20074;-64
2022/12/08 03:32:29;;;;;;;30.08;15.50;;;;;;;3.74;99.12;100472.03;5095337;28;20093;-64
2022/12/08 03:34:59;;;;;;;30.85;15.73;;;;;;;3.81;98.62;100473.25;5096374;28;20390;-64
2022/12/08 03:37:27;;;;;;;32.97;15.20;;;;;;;3.66;98.85;100466.56;5096654;28;20414;-64
2022/12/08 03:39:54;;;;;;;33.97;15.40;;;;;;;3.80;98.68;100466.34;5096092;28;20511;-66
2022/12/08 03:42:21;;;;;;;28.17;15.80;;;;;;;3.78;99.07;100459.53;5096245;28;20040;-64
2022/12/08 03:44:48;;;;;;;31.33;15.52;;;;;;;3.72;98.62;100462.63;5094638;28;20532;-64
2022/12/08 03:47:15;;;;;;;29.52;15.40;;;;;;;3.58;99.26;100456.63;5096181;28;20051;-64
2022/12/08 03:49:42;;;;;;;27.65;15.35;;;;;;;3.73;99.07;100456.41;5095802;28;20048;-64
2022/12/08 03:52:09;;;;;;;29.27;15.50;;;;;;;3.89;99.13;100450.84;5096346;28;20047;-64
2022/12/08 03:54:35;;;;;;;29.63;15.18;;;;;;;3.79;98.50;100454.16;5096169;28;20524;-64
2022/12/08 03:57:02;;;;;;;28.30;14.98;;;;;;;3.76;98.55;100449.16;5096391;28;20129;-64
2022/12/08 03:59:28;;;;;;;25.48;14.18;;;;;;;3.82;98.49;100440.81;5096266;28;20050;-64
2022/12/08 04:01:55;;;;;;;28.45;14.10;;;;;;;3.87;98.54;100440.44;5095888;28;20055;-64
2022/12/08 04:04:22;;;;;;;30.40;14.68;;;;;;;3.91;98.55;100443.69;5095988;28;20131;-64
2022/12/08 04:06:50;;;;;;;23.90;12.02;;;;;;;3.67;98.34;100439.34;5095127;28;20498;-64
2022/12/08 04:09:16;;;;;;;27.63;13.18;;;;;;;3.67;99.16;100434.09;5095610;28;20406;-65
2022/12/08 04:11:43;;;;;;;26.50;13.50;;;;;;;3.65;99.54;100428.97;5094254;28;20101;-65
2022/12/08 04:14:10;;;;;;;28.33;13.63;;;;;;;3.63;99.50;100428.25;5095957;28;20386;-65
2022/12/08 04:16:36;;;;;;;27.27;13.55;;;;;;;3.63;99.92;100423.00;5095928;28;20063;-64
2022/12/08 04:19:03;;;;;;;26.00;14.13;;;;;;;3.82;99.06;100419.81;5095673;28;20048;-64
2022/12/08 04:21:31;;;;;;;24.83;13.10;;;;;;;3.75;98.89;100421.25;5095637;28;20066;-64
2022/12/08 04:23:58;;;;;;;25.73;12.65;;;;;;;3.80;98.72;100416.50;5094957;28;20058;-64
2022/12/08 04:26:26;;;;;;;23.95;13.20;;;;;;;3.79;98.80;100413.97;5095785;28;20044;-64
2022/12/08 04:28:53;;;;;;;23.02;12.40;;;;;;;3.81;99.26;100406.81;5094170;28;20051;-64
2022/12/08 04:31:20;;;;;;;25.92;12.88;;;;;;;3.75;98.68;100405.50;5095655;28;20055;-64
2022/12/08 04:33:47;;;;;;;29.65;13.35;;;;;;;3.71;99.66;100404.09;5095268;28;20397;-64
2022/12/08 04:36:14;;;;;;;26.70;12.57;;;;;;;3.67;99.77;100404.41;5095416;28;20090;-64
2022/12/08 04:38:40;;;;;;;28.65;13.35;;;;;;;3.71;100.00;100408.47;5095283;28;20059;-64
2022/12/08 04:41:07;;;;;;;28.77;13.80;;;;;;;3.69;100.00;100407.75;5095321;28;20044;-64
2022/12/08 04:43:34;;;;;;;24.70;12.68;;;;;;;3.53;100.00;100410.72;5095204;28;20055;-64
2022/12/08 04:46:05;;;;;;;26.10;12.45;;;;;;;3.49;100.00;100399.63;5093997;28;20054;-64
2022/12/08 04:48:31;;;;;;;31.60;13.40;;;;;;;3.49;100.00;100397.00;5094638;28;20470;-64
2022/12/08 04:50:58;;;;;;;28.42;13.98;;;;;;;3.56;100.00;100400.00;5095366;28;20048;-64
2022/12/08 04:53:25;;;;;;;33.47;14.35;;;;;;;3.55;100.00;100398.34;5094759;28;20072;-64
2022/12/08 04:55:53;;;;;;;26.45;13.68;;;;;;;3.50;100.00;100392.59;5095002;28;20043;-64
2022/12/08 04:58:20;;;;;;;26.25;13.63;;;;;;;3.53;100.00;100395.84;5094648;28;20401;-64
2022/12/08 05:00:47;;;;;;;26.17;13.82;;;;;;;3.49;100.00;100393.53;5094915;28;20040;-64
2022/12/08 05:03:15;;;;;;;28.75;13.50;;;;;;;3.51;100.00;100392.50;5094582;28;20097;-64
2022/12/08 05:05:42;;;;;;;28.77;14.48;;;;;;;3.51;100.00;100395.13;5092955;28;20048;-65
2022/12/08 05:08:09;;;;;;;26.60;12.57;;;;;;;3.28;100.00;100393.41;5094358;28;20397;-65
2022/12/08 05:10:36;;;;;;;31.65;14.38;;;;;;;3.40;100.00;100388.06;5094218;28;20047;-64
2022/12/08 05:13:03;;;;;;;33.42;15.88;;;;;;;3.39;100.00;100389.00;5094886;28;20047;-65
2022/12/08 05:15:30;;;;;;;29.20;14.65;;;;;;;3.42;100.00;100388.78;5093193;28;20105;-64
2022/12/08 05:17:56;;;;;;;35.00;15.88;;;;;;;3.43;100.00;100390.44;5094307;28;20036;-65
2022/12/08 05:20:23;;;;;;;31.65;15.27;;;;;;;3.47;100.00;100393.66;5092814;28;20042;-66
2022/12/08 05:22:50;;;;;;;31.40;16.02;;;;;;;3.49;100.00;100388.28;5094393;28;20048;-66
2022/12/08 05:25:18;;;;;;;39.25;17.20;;;;;;;3.58;100.00;100385.78;5094575;28;20098;-65
2022/12/08 05:27:44;;;;;;;33.40;17.13;;;;;;;3.53;100.00;100387.09;5093886;28;20036;-64
2022/12/08 05:30:12;;;;;;;39.22;17.73;;;;;;;3.46;100.00;100390.22;5094374;28;20067;-64
2022/12/08 05:32:38;;;;;;;47.75;18.65;;;;;;;3.52;100.00;100394.16;5092971;28;20055;-64
2022/12/08 05:35:05;;;;;;;40.25;17.48;;;;;;;3.48;100.00;100390.09;5092998;28;20048;-63
2022/12/08 05:37:32;;;;;;;40.50;17.98;;;;;;;3.46;100.00;100384.97;5094170;28;20040;-66
2022/12/08 05:39:59;;;;;;;37.88;19.73;;;;;;;3.46;100.00;100395.44;5094156;28;20131;-65
2022/12/08 05:42:26;;;;;;;41.67;19.77;;;;;;;3.53;100.00;100382.72;5094288;28;20059;-65
2022/12/08 05:44:52;;;;;;;43.33;19.20;;;;;;;3.51;100.00;100378.53;5093983;28;20055;-65
2022/12/08 05:47:19;;;;;;;45.50;19.63;;;;;;;3.52;100.00;100377.59;5092781;28;20047;-64
2022/12/08 05:49:46;;;;;;;46.45;20.27;;;;;;;3.46;100.00;100379.72;5093499;28;20044;-64
2022/12/08 05:52:12;;;;;;;51.88;21.42;;;;;;;3.41;100.00;100375.78;5093643;28;20040;-64
2022/12/08 05:54:39;;;;;;;41.63;18.08;;;;;;;3.43;100.00;100382.56;5093116;28;20048;-64
2022/12/08 05:57:06;;;;;;;50.53;22.77;;;;;;;3.43;100.00;100366.81;5093581;28;20397;-64
2022/12/08 05:59:32;;;;;;;49.40;22.90;;;;;;;3.39;100.00;100368.03;5093762;28;20089;-64
2022/12/08 06:01:59;;;;;;;55.22;24.08;;;;;;;3.48;100.00;100366.50;5093562;28;20046;-64
2022/12/08 06:04:27;;;;;;;49.47;21.38;;;;;;;3.43;100.00;100361.59;5093740;28;20058;-64
2022/12/08 06:06:53;;;;;;;52.38;24.23;;;;;;;3.44;100.00;100372.94;5092769;28;20374;-65
2022/12/08 06:09:20;;;;;;;49.63;22.08;;;;;;;3.41;100.00;100373.16;5093896;28;20044;-66
2022/12/08 06:11:47;;;;;;;46.53;22.80;;;;;;;3.43;100.00;100368.63;5093449;28;20048;-64
2022/12/08 06:14:14;;;;;;;46.33;22.23;;;;;;;3.45;100.00;100366.72;5092365;28;20044;-64
2022/12/08 06:16:40;;;;;;;42.10;20.85;;;;;;;3.41;100.00;100362.66;5093307;28;20036;-64
2022/12/08 06:19:07;;;;;;;42.97;20.40;;;;;;;3.40;100.00;100364.47;5092909;28;20119;-66
2022/12/08 06:21:34;;;;;;;46.25;20.75;;;;;;;3.38;100.00;100368.13;5093461;28;20119;-65
2022/12/08 06:24:01;;;;;;;45.80;21.63;;;;;;;3.33;100.00;100362.41;5092796;28;20071;-66
2022/12/08 06:26:28;;;;;;;46.97;21.15;;;;;;;3.34;100.00;100359.66;5093752;28;20044;-65
2022/12/08 06:28:55;;;;;;;48.40;20.95;;;;;;;3.38;100.00;100361.09;5092886;28;20036;-66
2022/12/08 06:31:24;;;;;;;37.85;17.52;;;;;;;3.29;100.00;100355.72;5093513;28;20067;-65
2022/12/08 06:33:51;;;;;;;44.45;19.85;;;;;;;3.25;100.00;100361.19;5092830;28;20405;-64
2022/12/08 06:36:21;;;;;;;44.60;19.33;;;;;;;3.32;100.00;100358.94;5093415;28;20439;-65
2022/12/08 06:38:48;;;;;;;41.03;19.67;;;;;;;3.36;100.00;100364.78;5093008;28;20036;-63
2022/12/08 06:41:16;;;;;;;44.85;19.65;;;;;;;3.35;100.00;100358.72;5093155;28;20048;-64
2022/12/08 06:43:43;;;;;;;40.95;19.42;;;;;;;3.42;100.00;100359.94;5093119;28;20044;-64
2022/12/08 06:46:13;;;;;;;35.90;16.75;;;;;;;3.32;100.00;100360.75;5093056;28;20409;-64
2022/12/08 06:48:40;;;;;;;39.33;17.60;;;;;;;3.29;100.00;100359.19;5090942;28;20518;-65
2022/12/08 06:51:09;;;;;;;44.45;20.05;;;;;;;3.37;100.00;100367.31;5092967;28;20051;-64
2022/12/08 06:53:37;;;;;;;38.58;18.60;;;;;;;3.40;100.00;100359.22;5092875;28;20121;-64
2022/12/08 06:56:05;;;;;;;40.70;19.80;;;;;;;3.33;100.00;100358.00;5092657;28;20036;-64
2022/12/08 06:58:32;;;;;;;44.30;19.75;;;;;;;3.32;100.00;100369.44;5092445;28;20044;-64
2022/12/08 07:01:08;;;;;;;39.33;19.77;;;;;;;3.37;100.00;100367.31;5093143;28;20067;-64
2022/12/08 07:03:36;;;;;;;43.50;19.77;;;;;;;3.24;100.00;100370.03;5092520;28;20050;-64
2022/12/08 07:06:04;;;;;;;33.13;16.67;;;;;;;3.08;100.00;100380.00;5092984;28;20047;-64
2022/12/08 07:08:32;;;;;;;41.10;19.80;;;;;;;3.11;100.00;100382.41;5088055;28;20043;-64
2022/12/08 07:11:05;;;;;;;44.75;20.63;;;;;;;3.09;100.00;100373.78;5096836;28;20498;-64
2022/12/08 07:13:32;;;;;;;50.90;21.40;;;;;;;3.14;100.00;100378.69;5096311;28;20386;-64
2022/12/08 07:15:59;;;;;;;46.75;22.23;;;;;;;3.12;100.00;100378.81;5096634;28;20048;-64
2022/12/08 07:18:25;;;;;;;47.72;20.58;;;;;;;3.22;100.00;100379.78;5096869;28;20123;-64
2022/12/08 07:20:52;;;;;;;45.88;21.17;;;;;;;3.18;100.00;100383.56;5096169;28;20055;-64
2022/12/08 07:23:19;;;;;;;43.20;21.05;;;;;;;3.34;100.00;100380.63;5096561;28;20083;-64
2022/12/08 07:25:46;;;;;;;42.30;20.88;;;;;;;3.27;100.00;100382.06;5096314;28;20051;-64
2022/12/08 07:28:12;;;;;;;43.38;22.45;;;;;;;3.14;100.00;100390.00;5096644;28;20048;-64
2022/12/08 07:30:39;;;;;;;44.13;20.92;;;;;;;3.30;100.00;100379.22;5096223;28;20516;-64
2022/12/08 07:33:06;;;;;;;45.30;21.80;;;;;;;3.21;100.00;100390.41;5096302;28;20058;-64
2022/12/08 07:35:32;;;;;;;43.22;20.35;;;;;;;3.19;100.00;100384.44;5096364;28;20056;-64
2022/12/08 07:38:00;;;;;;;45.03;20.73;;;;;;;3.15;100.00;100373.34;5096240;28;20051;-64
2022/12/08 07:40:27;;;;;;;40.17;20.40;;;;;;;3.10;100.00;100379.88;5096384;28;20109;-64
2022/12/08 07:42:54;;;;;;;41.25;18.50;;;;;;;3.02;100.00;100394.38;5096192;28;20569;-64
2022/12/08 07:45:20;;;;;;;39.55;18.05;;;;;;;3.05;100.00;100374.97;5094360;28;20584;-65
2022/12/08 07:47:48;;;;;;;35.50;16.67;;;;;;;3.19;100.00;100387.88;5080916;28;20041;-63
2022/12/08 07:50:15;;;;;;;36.40;15.90;;;;;;;3.21;100.00;100372.88;5091328;28;20052;-63
2022/12/08 07:52:41;;;;;;;38.03;17.00;;;;;;;3.17;100.00;100375.84;5082330;28;20119;-63
2022/12/08 07:55:08;;;;;;;36.67;16.92;;;;;;;3.27;100.00;100382.06;5090283;28;20551;-64
2022/12/08 07:57:35;;;;;;;31.50;14.10;;;;;;;3.12;100.00;100376.19;5102029;28;20040;-64
2022/12/08 08:00:03;;;;;;;31.95;15.57;;;;;;;3.11;100.00;100373.66;5088679;28;20041;-64
2022/12/08 08:02:48;;;;;;;41.25;16.70;;;;;;;3.00;100.00;100380.56;5107109;27;20901;-64
2022/12/08 08:05:15;;;;;;;36.10;17.25;;;;;;;3.08;100.00;100380.00;5106274;28;20059;-64
2022/12/08 08:07:43;;;;;;;40.92;19.00;;;;;;;3.05;100.00;100374.97;5099277;28;20082;-64
2022/12/08 08:10:10;;;;;;;36.78;17.75;;;;;;;3.18;100.00;100375.72;5101419;28;20052;-64
2022/12/08 08:12:37;;;;;;;39.58;18.92;;;;;;;2.99;100.00;100378.88;5095916;28;20086;-64
2022/12/08 08:15:06;;;;;;;37.95;18.35;;;;;;;2.95;100.00;100385.31;5107978;28;20481;-64
2022/12/08 08:17:35;;;;;;;38.15;19.05;;;;;;;3.06;100.00;100382.72;5106264;28;20474;-64
2022/12/08 08:20:05;;;;;;;41.65;19.55;;;;;;;3.01;100.00;100384.84;5108572;28;20119;-65
2022/12/08 08:22:34;;;;;;;41.10;19.85;;;;;;;2.95;100.00;100384.44;5099151;28;20501;-65
2022/12/08 08:25:01;;;;;;;39.60;19.40;;;;;;;2.96;100.00;100384.34;5101889;28;20044;-65
2022/12/08 08:27:30;;;;;;;45.70;21.58;;;;;;;2.97;100.00;100382.59;5102839;28;20064;-65
2022/12/08 08:29:57;;;;;;;49.08;20.77;;;;;;;3.08;100.00;100383.44;5092809;28;20044;-65
2022/12/08 08:32:24;;;;;;;43.33;19.30;;;;;;;3.04;100.00;100375.94;5102464;28;20040;-65
2022/12/08 08:34:50;;;;;;;50.58;21.27;;;;;;;2.97;100.00;100387.81;5103397;28;20056;-65
2022/12/08 08:37:17;;;;;;;50.72;22.08;;;;;;;3.06;100.00;100380.09;5094484;28;20036;-65
2022/12/08 08:39:44;;;;;;;44.80;20.55;;;;;;;3.04;100.00;100379.38;5104483;28;20044;-65
2022/12/08 08:42:11;;;;;;;52.50;22.80;;;;;;;3.12;100.00;100378.81;5099272;28;20035;-65
2022/12/08 08:44:38;;;;;;;49.88;20.35;;;;;;;3.13;100.00;100382.25;5108149;28;20077;-65
2022/12/08 08:47:05;;;;;;;49.45;22.80;;;;;;;3.13;100.00;100383.09;5106241;28;20441;-65
2022/12/08 08:49:32;;;;;;;58.17;23.10;;;;;;;3.17;100.00;100383.72;5101120;28;20081;-65
2022/12/08 08:51:59;;;;;;;50.80;22.05;;;;;;;3.19;100.00;100381.81;5091178;28;20067;-65
2022/12/08 08:54:27;;;;;;;60.05;23.75;;;;;;;3.10;100.00;100378.09;5103458;28;20106;-65
2022/12/08 08:56:57;;;;;;;52.03;22.77;;;;;;;3.24;100.00;100379.69;5096723;28;20046;-65
2022/12/08 08:59:24;;;;;;;50.22;23.08;;;;;;;3.40;100.00;100374.09;5101708;28;20101;-65
2022/12/08 09:01:51;;;;;;;58.72;23.83;;;;;;;3.44;100.00;100376.38;5103440;28;20140;-65
2022/12/08 09:04:19;;;;;;;52.30;23.58;;;;;;;3.33;100.00;100381.59;5108152;28;20048;-64
2022/12/08 09:06:47;;;;;;;107.40;42.35;;;;;;;3.46;100.00;100381.50;5095905;28;20070;-66
2022/12/08 09:09:15;;;;;;;55.03;23.80;;;;;;;3.42;100.00;100383.53;5095561;28;20036;-64
2022/12/08 09:11:42;;;;;;;54.30;24.38;;;;;;;3.20;100.00;100379.09;5101666;28;20048;-64
2022/12/08 09:14:11;;;;;;;62.72;24.63;;;;;;;3.29;100.00;100380.16;5073723;28;20036;-64
2022/12/08 09:16:40;;;;;;;56.28;22.38;;;;;;;3.20;100.00;100384.31;5090722;28;20040;-63
2022/12/08 09:19:08;;;;;;;50.28;23.70;;;;;;;3.27;100.00;100384.69;5087832;28;20089;-64
2022/12/08 09:21:35;;;;;;;54.75;23.23;;;;;;;3.38;100.00;100378.63;5081638;28;20109;-64
2022/12/08 09:24:01;;;;;;;52.08;23.00;;;;;;;3.36;100.00;100380.53;5085472;28;20048;-64
2022/12/08 09:26:28;;;;;;;47.35;21.42;;;;;;;3.44;100.00;100391.28;5077342;28;20486;-64
2022/12/08 09:28:56;;;;;;;49.08;21.42;;;;;;;3.54;100.00;100387.00;5091780;28;20490;-64
2022/12/08 09:31:23;;;;;;;46.78;21.05;;;;;;;3.46;100.00;100397.25;5085572;28;20044;-64
2022/12/08 09:33:50;;;;;;;45.05;18.45;;;;;;;3.26;100.00;100385.66;5086840;28;20044;-64
2022/12/08 09:36:19;;;;;;;48.55;20.10;;;;;;;3.30;100.00;100381.00;5087749;28;20528;-64
2022/12/08 09:38:46;;;;;;;42.75;19.33;;;;;;;3.34;100.00;100382.44;5085961;28;20047;-64
2022/12/08 09:41:28;;;;;;;47.58;20.23;;;;;;;3.44;100.00;100388.66;5075667;28;20036;-64
2022/12/08 09:44:40;;;;;;;49.33;18.70;;;;;;;3.32;100.00;100387.78;5091652;28;20070;-64
2022/12/08 09:47:28;;;;;;;42.38;18.35;;;;;;;3.40;100.00;100381.97;5084411;28;20055;-64
2022/12/08 09:50:05;;;;;;;39.38;18.35;;;;;;;3.41;100.00;100381.84;5092855;28;20074;-65
2022/12/08 09:52:42;;;;;;;39.10;16.98;;;;;;;3.40;100.00;100389.81;5080328;28;20036;-64
2022/12/08 09:55:22;;;;;;;38.30;17.17;;;;;;;3.41;100.00;100388.88;5085297;28;20715;-64
2022/12/08 09:57:57;;;;;;;35.70;16.15;;;;;;;3.44;100.00;100378.19;5088251;28;20051;-64
2022/12/08 10:00:25;;;;;;;34.92;16.55;;;;;;;3.40;100.00;100371.47;5091618;28;20028;-66
2022/12/08 10:02:52;;;;;;;39.28;16.70;;;;;;;3.58;100.00;100364.81;5088005;28;20375;-65
2022/12/08 10:05:20;;;;;;;39.72;16.20;;;;;;;3.62;100.00;100370.66;5090102;28;20043;-65
2022/12/08 10:07:58;;;;;;;34.55;15.80;;;;;;;3.49;100.00;100372.56;5093822;28;20048;-65
2022/12/08 10:10:40;;;;;;;32.67;15.20;;;;;;;3.46;100.00;100371.84;5082565;28;20130;-65
2022/12/08 10:13:15;;;;;;;;;;;;;;;3.37;100.00;100369.09;5091804;28;20040;-65
2022/12/08 10:16:10;;;;;;;31.48;13.20;;;;;;;3.25;100.00;100363.81;5089730;28;19920;-65
2022/12/08 10:18:40;;;;;;;25.52;12.10;;;;;;;3.25;100.00;100365.59;5092368;28;20048;-65
2022/12/08 10:21:16;;;;;;;29.65;14.48;;;;;;;3.29;100.00;100366.22;5076768;28;20044;-65
2022/12/08 10:23:47;;;;;;;36.50;14.65;;;;;;;3.18;100.00;100361.78;5076966;28;20049;-65
2022/12/08 10:26:17;;;;;;;39.17;16.05;;;;;;;3.27;100.00;100353.22;5071802;28;20048;-64
2022/12/08 10:28:45;;;;;;;30.63;12.32;;;;;;;3.32;100.00;100358.94;5083282;28;20051;-65
2022/12/08 10:31:16;;;;;;;29.77;14.63;;;;;;;3.26;100.00;100357.63;5080247;28;20127;-65
2022/12/08 10:33:43;;;;;;;35.28;15.35;;;;;;;3.38;100.00;100355.84;5086620;28;20047;-65
2022/12/08 10:36:10;;;;;;;34.72;15.25;;;;;;;3.48;100.00;100352.56;5080904;28;20082;-65
2022/12/08 10:38:41;;;;;;;35.20;14.50;;;;;;;3.38;100.00;100357.66;5076112;28;20150;-65
2022/12/08 10:43:48;;;;;;;37.92;15.77;;;;;;;3.54;100.00;100345.03;5102409;27;20889;-65
2022/12/08 10:46:24;;;;;;;33.65;15.45;;;;;;;3.60;100.00;100348.97;5097403;28;20043;-65
2022/12/08 10:48:54;;;;;;;40.10;15.25;;;;;;;3.43;100.00;100343.22;5095872;28;20040;-65
2022/12/08 10:51:39;;;;;;;39.60;15.38;;;;;;;3.63;100.00;100340.88;5110883;28;20040;-65
2022/12/08 10:54:28;;;;;;;33.33;15.25;;;;;;;3.51;100.00;100337.41;5067832;28;20421;-65
2022/12/08 10:56:56;;;;;;;35.92;14.45;;;;;;;3.61;100.00;100338.34;5096784;27;20044;-65
2022/12/08 10:59:24;;;;;;;41.58;15.32;;;;;;;3.51;100.00;100336.56;5109839;28;20039;-65
2022/12/08 11:01:53;;;;;;;35.70;15.25;;;;;;;3.48;100.00;100335.03;5110223;28;20093;-65
2022/12/08 11:04:37;;;;;;;41.53;15.93;;;;;;;3.49;100.00;100333.22;5100443;28;20339;-65
2022/12/08 11:07:05;;;;;;;39.25;16.80;;;;;;;3.60;100.00;100327.97;5119135;28;20552;-65
2022/12/08 11:09:47;;;;;;;34.55;15.52;;;;;;;3.50;100.00;100322.63;5093187;27;20758;-65
2022/12/08 11:12:18;;;;;;;44.40;17.48;;;;;;;3.62;100.00;100326.06;5101151;28;20444;-64
2022/12/08 11:15:04;;;;;;;37.85;16.35;;;;;;;3.67;100.00;100329.16;5105886;28;20055;-64
2022/12/08 11:17:38;;;;;;;42.72;17.60;;;;;;;3.64;100.00;100321.56;5105220;28;20138;-65
2022/12/08 11:22:52;;;;;;;38.63;15.00;;;;;;;3.62;99.56;100320.81;5087098;27;20408;-65
2022/12/08 11:25:23;;;;;;;41.05;15.50;;;;;;;3.79;99.18;100309.84;5077326;28;20128;-65
2022/12/08 11:27:53;;;;;;;39.40;16.52;;;;;;;3.90;100.00;100305.56;5067367;28;20037;-65
2022/12/08 11:30:26;;;;;;;38.75;14.70;;;;;;;4.02;99.20;100309.81;5096586;28;20044;-65
2022/12/08 11:33:00;;;;;;;36.45;15.48;;;;;;;3.89;98.85;100302.06;5082460;28;20379;-65